createdAt,value
2018-09-09T00:00:43.436Z,55.41
2018-09-09T00:03:11.232Z,54.89
2018-09-09T00:05:38.999Z,55.80
2018-09-09T00:08:06.828Z,56.22
2018-09-09T00:10:34.611Z,57.75
2018-09-09T00:13:02.372Z,58.58
2018-09-09T00:15:30.124Z,59.45
2018-09-09T00:17:57.923Z,60.36
2018-09-09T00:20:25.780Z,58.30
2018-09-09T00:22:53.548Z,58.57
2018-09-09T00:25:21.333Z,57.16
2018-09-09T00:27:49.089Z,58.05
2018-09-09T00:30:16.864Z,57.40
2018-09-09T00:32:44.644Z,56.46
2018-09-09T00:35:12.421Z,56.76
2018-09-09T00:37:40.208Z,56.95
2018-09-09T00:40:08.035Z,56.55
2018-09-09T00:42:35.808Z,56.77
2018-09-09T00:45:03.633Z,56.61
2018-09-09T00:47:31.436Z,57.06
2018-09-09T00:50:04.621Z,56.80
2018-09-09T00:52:37.951Z,56.34
2018-09-09T00:55:05.930Z,56.61
2018-09-09T00:57:33.661Z,56.40
2018-09-09T01:00:01.456Z,56.71
2018-09-09T01:02:29.204Z,56.70
2018-09-09T01:04:56.940Z,57.13
2018-09-09T01:07:24.711Z,56.34
2018-09-09T01:09:52.433Z,56.75
2018-09-09T01:12:20.160Z,56.60
2018-09-09T01:14:47.950Z,56.59
2018-09-09T01:17:15.671Z,56.90
2018-09-09T01:19:43.392Z,56.15
2018-09-09T01:22:11.190Z,56.86
2018-09-09T01:24:38.947Z,57.94
2018-09-09T01:27:06.706Z,58.09
2018-09-09T01:29:34.482Z,56.85
2018-09-09T01:32:02.255Z,57.87
2018-09-09T01:34:29.992Z,58.10
2018-09-09T01:36:57.775Z,57.39
2018-09-09T01:39:25.575Z,57.80
2018-09-09T01:41:53.316Z,57.45
2018-09-09T01:44:21.149Z,57.43
2018-09-09T01:46:48.889Z,58.20
2018-09-09T01:49:16.641Z,57.90
2018-09-09T01:51:44.441Z,58.76
2018-09-09T01:54:12.182Z,58.19
2018-09-09T01:56:39.919Z,57.37
2018-09-09T01:59:07.706Z,57.36
2018-09-09T02:01:35.465Z,58.11
2018-09-09T02:04:03.310Z,57.84
2018-09-09T02:06:31.091Z,58.37
2018-09-09T02:08:58.895Z,58.23
2018-09-09T02:11:26.676Z,58.72
2018-09-09T02:13:54.446Z,58.42
2018-09-09T02:16:22.183Z,59.36
2018-09-09T02:18:49.932Z,60.53
2018-09-09T02:21:17.731Z,61.36
2018-09-09T02:23:45.476Z,61.99
2018-09-09T02:26:13.340Z,62.39
2018-09-09T02:28:41.132Z,62.45
2018-09-09T02:31:08.872Z,62.82
2018-09-09T02:33:36.632Z,63.50
2018-09-09T02:36:04.428Z,63.28
2018-09-09T02:38:32.177Z,63.29
2018-09-09T02:40:59.912Z,63.67
2018-09-09T02:43:27.688Z,63.38
2018-09-09T02:45:55.462Z,64.48
2018-09-09T02:48:23.213Z,64.60
2018-09-09T02:50:50.983Z,63.88
2018-09-09T02:53:18.739Z,64.39
2018-09-09T02:55:46.496Z,64.53
2018-09-09T02:58:15.880Z,64.76
2018-09-09T03:00:43.645Z,65.15
2018-09-09T03:03:11.399Z,65.04
2018-09-09T03:05:39.388Z,65.84
2018-09-09T03:08:07.487Z,66.32
2018-09-09T03:10:35.245Z,65.81
2018-09-09T03:13:03.016Z,66.32
2018-09-09T03:15:30.814Z,66.64
2018-09-09T03:17:58.555Z,67.56
2018-09-09T03:20:26.340Z,68.10
2018-09-09T03:22:54.073Z,68.04
2018-09-09T03:25:21.820Z,67.55
2018-09-09T03:27:49.580Z,67.57
2018-09-09T03:30:17.301Z,68.30
2018-09-09T03:32:45.058Z,68.74
2018-09-09T03:35:12.875Z,69.19
2018-09-09T03:37:40.619Z,68.93
2018-09-09T03:40:08.399Z,68.88
2018-09-09T03:42:36.172Z,69.65
2018-09-09T03:45:04.357Z,69.60
2018-09-09T03:47:32.109Z,68.83
2018-09-09T03:49:59.873Z,68.89
2018-09-09T03:52:27.612Z,69.59
2018-09-09T03:54:55.396Z,69.51
2018-09-09T03:57:23.165Z,68.87
2018-09-09T03:59:50.916Z,68.78
2018-09-09T04:02:18.679Z,68.10
2018-09-09T04:04:46.455Z,67.38
2018-09-09T04:07:14.207Z,67.56
2018-09-09T04:09:41.959Z,66.84
2018-09-09T04:12:09.742Z,67.09
2018-09-09T04:14:37.483Z,65.28
2018-09-09T04:17:05.257Z,63.39
2018-09-09T04:19:33.061Z,60.99
2018-09-09T04:22:00.803Z,58.29
2018-09-09T04:24:28.577Z,55.77
2018-09-09T04:26:56.348Z,54.59
2018-09-09T04:29:24.094Z,53.63
2018-09-09T04:31:51.840Z,52.19
2018-09-09T04:34:19.621Z,50.70
2018-09-09T04:36:47.351Z,49.44
2018-09-09T04:39:15.116Z,48.06
2018-09-09T04:41:42.924Z,46.08
2018-09-09T04:44:11.941Z,45.08
2018-09-09T04:46:39.792Z,44.59
2018-09-09T04:49:08.337Z,44.55
2018-09-09T04:51:36.137Z,47.19
2018-09-09T04:54:03.973Z,48.16
2018-09-09T04:56:31.753Z,47.51
2018-09-09T04:58:59.541Z,45.62
2018-09-09T05:01:27.349Z,43.38
2018-09-09T05:03:55.145Z,42.59
2018-09-09T05:06:22.909Z,40.97
2018-09-09T05:08:50.648Z,40.04
2018-09-09T05:11:18.425Z,40.74
2018-09-09T05:13:46.168Z,40.59
2018-09-09T05:16:13.950Z,40.94
2018-09-09T05:18:41.737Z,41.32
2018-09-09T05:21:09.505Z,43.67
2018-09-09T05:23:37.251Z,42.66
2018-09-09T05:26:05.053Z,41.39
2018-09-09T05:28:32.787Z,41.75
2018-09-09T05:31:00.761Z,41.21
2018-09-09T05:33:28.608Z,41.56
2018-09-09T05:35:56.356Z,39.82
2018-09-09T05:38:24.131Z,39.64
2018-09-09T05:40:51.985Z,39.54
2018-09-09T05:43:19.747Z,40.12
2018-09-09T05:45:47.525Z,39.77
2018-09-09T05:48:15.387Z,39.66
2018-09-09T05:50:43.481Z,42.22
2018-09-09T05:53:11.215Z,45.79
2018-09-09T05:55:39.004Z,45.11
2018-09-09T05:58:07.405Z,44.97
2018-09-09T06:00:35.289Z,48.13
2018-09-09T06:03:03.702Z,49.49
2018-09-09T06:05:31.447Z,49.18
2018-09-09T06:07:59.598Z,47.11
2018-09-09T06:10:27.377Z,46.24
2018-09-09T06:12:55.133Z,44.61
2018-09-09T06:15:22.896Z,44.09
2018-09-09T06:17:50.658Z,44.84
2018-09-09T06:20:18.400Z,43.04
2018-09-09T06:22:46.188Z,42.98
2018-09-09T06:25:13.981Z,43.39
2018-09-09T06:27:41.747Z,41.85
2018-09-09T06:30:09.496Z,41.83
2018-09-09T06:32:37.314Z,44.25
2018-09-09T06:35:05.173Z,47.75
2018-09-09T06:37:33.196Z,46.48
2018-09-09T06:40:01.068Z,46.49
2018-09-09T06:42:29.797Z,47.35
2018-09-09T06:44:57.716Z,50.11
2018-09-09T06:47:25.479Z,45.94
2018-09-09T06:49:53.824Z,46.71
2018-09-09T06:52:21.589Z,44.43
2018-09-09T06:54:49.380Z,42.83
2018-09-09T06:57:17.049Z,45.14
2018-09-09T06:59:44.774Z,44.04
2018-09-09T07:02:12.515Z,44.00
2018-09-09T07:04:40.190Z,42.95
2018-09-09T07:07:07.891Z,43.25
2018-09-09T07:09:35.585Z,44.20
2018-09-09T07:12:03.392Z,44.04
2018-09-09T07:14:31.011Z,45.12
2018-09-09T07:16:58.749Z,45.38
2018-09-09T07:19:26.458Z,45.57
2018-09-09T07:21:54.154Z,47.04
2018-09-09T07:24:21.913Z,46.57
2018-09-09T07:26:49.596Z,46.18
2018-09-09T07:29:17.397Z,47.67
2018-09-09T07:31:45.127Z,47.16
2018-09-09T07:34:12.849Z,44.92
2018-09-09T07:36:40.558Z,46.50
2018-09-09T07:39:08.341Z,44.86
2018-09-09T07:41:36.039Z,45.98
2018-09-09T07:44:03.745Z,45.98
2018-09-09T07:46:31.564Z,46.84
2018-09-09T07:48:59.573Z,45.04
2018-09-09T07:51:27.335Z,44.64
2018-09-09T07:53:55.053Z,44.34
2018-09-09T07:56:22.718Z,43.81
2018-09-09T07:58:50.532Z,43.09
2018-09-09T08:01:18.270Z,42.69
2018-09-09T08:03:45.955Z,42.50
2018-09-09T08:06:13.629Z,42.31
2018-09-09T08:08:41.338Z,43.33
2018-09-09T08:11:09.038Z,41.83
2018-09-09T08:13:36.746Z,41.39
2018-09-09T08:16:04.567Z,41.69
2018-09-09T08:18:32.393Z,40.92
2018-09-09T08:21:00.075Z,38.60
2018-09-09T08:23:27.864Z,39.24
2018-09-09T08:25:55.988Z,40.14
2018-09-09T08:28:24.145Z,39.77
2018-09-09T08:30:51.882Z,39.29
2018-09-09T08:33:19.571Z,39.76
2018-09-09T08:35:47.307Z,39.35
2018-09-09T08:38:15.159Z,38.99
2018-09-09T08:40:42.889Z,37.71
2018-09-09T08:43:10.620Z,37.76
2018-09-09T08:45:38.380Z,38.74
2018-09-09T08:48:06.245Z,36.10
2018-09-09T08:50:33.965Z,38.32
2018-09-09T08:53:01.781Z,37.20
2018-09-09T08:55:29.511Z,38.04
2018-09-09T08:57:57.237Z,38.53
2018-09-09T09:00:24.985Z,37.95
2018-09-09T09:02:52.696Z,37.32
2018-09-09T09:05:20.361Z,36.71
2018-09-09T09:07:48.126Z,35.99
2018-09-09T09:10:15.799Z,37.88
2018-09-09T09:12:43.544Z,36.44
2018-09-09T09:15:11.581Z,35.42
2018-09-09T09:17:39.250Z,35.29
2018-09-09T09:20:07.016Z,36.35
2018-09-09T09:22:34.746Z,34.56
2018-09-09T09:25:02.507Z,36.40
2018-09-09T09:27:30.210Z,34.51
2018-09-09T09:29:58.655Z,36.19
2018-09-09T09:32:26.460Z,32.62
2018-09-09T09:34:55.062Z,32.68
2018-09-09T09:37:23.863Z,33.07
2018-09-09T09:39:52.241Z,31.26
2018-09-09T09:42:20.012Z,31.38
2018-09-09T09:44:47.810Z,30.01
2018-09-09T09:47:15.568Z,30.71
2018-09-09T09:49:43.364Z,30.42
2018-09-09T09:52:11.270Z,29.33
2018-09-09T09:54:39.736Z,31.46
2018-09-09T09:57:07.509Z,31.45
2018-09-09T09:59:35.300Z,31.52
2018-09-09T10:02:03.100Z,32.89
2018-09-09T10:04:30.873Z,30.01
2018-09-09T10:06:58.693Z,31.46
2018-09-09T10:09:26.533Z,31.68
2018-09-09T10:11:54.341Z,31.30
2018-09-09T10:14:22.082Z,30.61
2018-09-09T10:16:49.749Z,30.37
2018-09-09T10:19:17.483Z,31.65
2018-09-09T10:21:45.214Z,31.72
2018-09-09T10:24:12.928Z,30.23
2018-09-09T10:26:40.619Z,30.65
2018-09-09T10:29:08.438Z,31.81
2018-09-09T10:31:36.195Z,31.89
2018-09-09T10:34:04.910Z,32.18
2018-09-09T10:36:32.684Z,30.57
2018-09-09T10:39:00.451Z,29.93
2018-09-09T10:41:28.145Z,29.75
2018-09-09T10:43:55.897Z,29.70
2018-09-09T10:46:23.776Z,27.63
2018-09-09T10:48:51.289Z,28.26
2018-09-09T10:51:19.142Z,29.11
2018-09-09T10:53:46.834Z,28.25
2018-09-09T10:56:14.538Z,28.82
2018-09-09T10:58:42.283Z,29.41
2018-09-09T11:01:09.994Z,29.41
2018-09-09T11:03:38.553Z,27.80
2018-09-09T11:06:06.689Z,28.05
2018-09-09T11:08:34.392Z,27.46
2018-09-09T11:11:02.082Z,28.40
2018-09-09T11:13:29.818Z,29.05
2018-09-09T11:15:57.540Z,28.07
2018-09-09T11:18:25.321Z,30.50
2018-09-09T11:20:53.741Z,31.49
2018-09-09T11:23:21.515Z,31.12
2018-09-09T11:25:49.251Z,29.38
2018-09-09T11:28:17.005Z,28.63
2018-09-09T11:30:44.705Z,29.29
2018-09-09T11:33:12.489Z,27.92
2018-09-09T11:35:40.396Z,27.75
2018-09-09T11:38:08.207Z,28.62
2018-09-09T11:40:35.965Z,28.66
2018-09-09T11:43:03.645Z,28.89
2018-09-09T11:45:31.413Z,27.45
2018-09-09T11:47:59.174Z,27.64
2018-09-09T11:50:27.010Z,27.36
2018-09-09T11:52:54.844Z,29.63
2018-09-09T11:55:22.623Z,28.59
2018-09-09T11:57:50.573Z,29.28
2018-09-09T12:00:18.348Z,28.55
2018-09-09T12:02:46.148Z,25.93
2018-09-09T12:05:13.955Z,26.40
2018-09-09T12:07:41.744Z,25.34
2018-09-09T12:10:09.539Z,25.66
2018-09-09T12:12:37.516Z,26.05
2018-09-09T12:15:05.390Z,26.00
2018-09-09T12:17:33.185Z,26.57
2018-09-09T12:20:01.078Z,25.05
2018-09-09T12:22:28.885Z,26.27
2018-09-09T12:24:56.719Z,25.80
2018-09-09T12:27:24.500Z,26.75
2018-09-09T12:29:52.305Z,27.79
2018-09-09T12:32:20.202Z,26.92
2018-09-09T12:34:48.865Z,25.12
2018-09-09T12:37:16.622Z,23.95
2018-09-09T12:39:44.399Z,24.34
2018-09-09T12:42:12.296Z,24.66
2018-09-09T12:44:45.660Z,26.04
2018-09-09T12:47:19.113Z,25.09
2018-09-09T12:49:46.852Z,23.79
2018-09-09T12:52:14.676Z,23.67
2018-09-09T12:54:42.594Z,24.20
2018-09-09T12:57:10.372Z,25.05
2018-09-09T12:59:38.227Z,25.46
2018-09-09T13:02:06.199Z,26.61
2018-09-09T13:04:34.095Z,25.70
2018-09-09T13:07:01.854Z,25.01
2018-09-09T13:09:29.716Z,24.83
2018-09-09T13:11:57.923Z,25.93
2018-09-09T13:14:25.732Z,27.38
2018-09-09T13:16:53.549Z,26.79
2018-09-09T13:19:21.456Z,26.16
2018-09-09T13:21:50.269Z,27.87
2018-09-09T13:24:18.073Z,26.83
2018-09-09T13:26:45.861Z,28.52
2018-09-09T13:29:13.652Z,28.05
2018-09-09T13:31:41.497Z,28.57
2018-09-09T13:34:09.578Z,29.86
2018-09-09T13:36:38.658Z,29.55
2018-09-09T13:39:07.126Z,29.93
2018-09-09T13:41:34.982Z,30.01
2018-09-09T13:44:03.088Z,30.14
2018-09-09T13:46:30.918Z,29.13
2018-09-09T13:48:58.710Z,28.71
2018-09-09T13:51:26.479Z,28.94
2018-09-09T13:53:54.326Z,28.92
2018-09-09T13:56:22.368Z,30.34
2018-09-09T13:58:50.173Z,29.73
2018-09-09T14:01:17.996Z,30.90
2018-09-09T14:03:45.826Z,31.05
2018-09-09T14:06:16.631Z,31.30
2018-09-09T14:08:44.464Z,30.88
2018-09-09T14:11:12.302Z,30.20
2018-09-09T14:13:40.084Z,31.59
2018-09-09T14:16:09.028Z,30.73
2018-09-09T14:18:36.870Z,31.82
2018-09-09T14:21:04.663Z,31.49
2018-09-09T14:23:32.717Z,32.78
2018-09-09T14:26:00.509Z,31.92
2018-09-09T14:28:28.384Z,32.00
2018-09-09T14:30:56.247Z,31.80
2018-09-09T14:33:24.102Z,31.74
2018-09-09T14:35:51.991Z,30.95
2018-09-09T14:38:19.916Z,30.60
2018-09-09T14:40:47.684Z,29.89
2018-09-09T14:43:15.501Z,30.98
2018-09-09T14:45:43.278Z,30.70
2018-09-09T14:48:11.032Z,30.22
2018-09-09T14:50:38.795Z,31.88
2018-09-09T14:53:06.681Z,31.64
2018-09-09T14:55:34.468Z,32.98
2018-09-09T14:58:02.347Z,33.15
2018-09-09T15:00:30.199Z,33.42
2018-09-09T15:02:58.055Z,34.27
2018-09-09T15:05:25.875Z,33.73
2018-09-09T15:07:53.675Z,33.21
2018-09-09T15:10:21.459Z,34.42
2018-09-09T15:12:49.259Z,34.67
2018-09-09T15:15:17.129Z,34.01
2018-09-09T15:17:44.912Z,34.42
2018-09-09T15:20:12.709Z,34.35
2018-09-09T15:22:40.552Z,35.25
2018-09-09T15:25:08.413Z,36.54
2018-09-09T15:27:36.286Z,36.69
2018-09-09T15:30:04.305Z,36.94
2018-09-09T15:32:32.316Z,36.61
2018-09-09T15:35:00.082Z,37.33
2018-09-09T15:37:27.945Z,36.17
2018-09-09T15:39:55.819Z,37.49
2018-09-09T15:42:23.604Z,36.71
2018-09-09T15:44:51.429Z,37.20
2018-09-09T15:47:19.207Z,35.99
2018-09-09T15:49:47.006Z,35.70
2018-09-09T15:52:14.913Z,36.54
2018-09-09T15:54:42.737Z,36.72
2018-09-09T15:57:10.581Z,36.09
2018-09-09T15:59:38.483Z,36.83
2018-09-09T16:02:06.329Z,36.05
2018-09-09T16:04:34.120Z,36.37
2018-09-09T16:07:01.919Z,36.41
2018-09-09T16:09:29.690Z,37.22
2018-09-09T16:11:57.504Z,36.31
2018-09-09T16:14:25.347Z,36.23
2018-09-09T16:16:53.196Z,36.07
2018-09-09T16:19:21.021Z,35.48
2018-09-09T16:21:48.868Z,35.95
2018-09-09T16:24:16.733Z,36.46
2018-09-09T16:26:44.567Z,35.85
2018-09-09T16:29:12.391Z,36.24
2018-09-09T16:31:40.184Z,35.92
2018-09-09T16:34:07.987Z,36.50
2018-09-09T16:36:35.808Z,36.07
2018-09-09T16:39:04.608Z,36.80
2018-09-09T16:41:32.441Z,36.75
2018-09-09T16:44:00.243Z,36.13
2018-09-09T16:46:28.024Z,36.33
2018-09-09T16:48:55.830Z,36.63
2018-09-09T16:51:23.681Z,36.94
2018-09-09T16:53:51.448Z,37.31
2018-09-09T16:56:19.311Z,37.21
2018-09-09T16:58:47.572Z,37.23
2018-09-09T17:01:15.523Z,36.65
2018-09-09T17:03:43.791Z,37.32
2018-09-09T17:06:11.624Z,37.91
2018-09-09T17:08:39.385Z,37.29
2018-09-09T17:11:07.492Z,37.17
2018-09-09T17:13:35.301Z,37.57
2018-09-09T17:16:03.059Z,37.32
2018-09-09T17:18:30.867Z,37.20
2018-09-09T17:20:59.000Z,37.60
2018-09-09T17:23:27.290Z,36.73
2018-09-09T17:25:55.412Z,37.66
2018-09-09T17:28:28.000Z,37.35
2018-09-09T17:30:55.811Z,36.55
2018-09-09T17:33:23.583Z,37.06
2018-09-09T17:35:51.439Z,37.42
2018-09-09T17:38:19.231Z,37.34
2018-09-09T17:40:46.934Z,37.31
2018-09-09T17:43:14.680Z,37.12
2018-09-09T17:45:42.344Z,37.30
2018-09-09T17:48:10.211Z,37.87
2018-09-09T17:50:37.933Z,38.21
2018-09-09T17:53:06.684Z,39.24
2018-09-09T17:55:34.439Z,38.78
2018-09-09T17:58:02.190Z,38.72
2018-09-09T18:00:29.895Z,38.91
2018-09-09T18:02:57.714Z,38.92
2018-09-09T18:05:25.432Z,39.22
2018-09-09T18:07:53.102Z,40.63
2018-09-09T18:10:20.766Z,41.73
2018-09-09T18:12:48.518Z,42.02
2018-09-09T18:15:16.181Z,42.65
2018-09-09T18:17:43.874Z,42.33
2018-09-09T18:20:11.692Z,42.37
2018-09-09T18:22:39.412Z,41.91
2018-09-09T18:25:07.139Z,41.12
2018-09-09T18:27:34.878Z,41.36
2018-09-09T18:30:02.624Z,40.08
2018-09-09T18:32:30.343Z,40.58
2018-09-09T18:34:58.122Z,41.19
2018-09-09T18:37:26.772Z,40.79
2018-09-09T18:39:54.518Z,41.37
2018-09-09T18:42:22.246Z,41.79
2018-09-09T18:44:50.394Z,42.06
2018-09-09T18:47:18.383Z,41.42
2018-09-09T18:49:46.741Z,40.70
2018-09-09T18:52:14.569Z,41.24
2018-09-09T18:54:42.224Z,42.40
2018-09-09T18:57:10.143Z,42.50
2018-09-09T18:59:37.916Z,42.53
2018-09-09T19:02:05.709Z,44.41
2018-09-09T19:04:33.654Z,45.06
2018-09-09T19:07:01.402Z,48.86
2018-09-09T19:09:29.267Z,50.68
2018-09-09T19:11:57.277Z,51.90
2018-09-09T19:14:24.958Z,52.28
2018-09-09T19:16:52.663Z,51.37
2018-09-09T19:19:20.384Z,50.80
2018-09-09T19:21:48.109Z,50.40
2018-09-09T19:24:15.774Z,50.61
2018-09-09T19:26:43.500Z,50.51
2018-09-09T19:29:11.192Z,49.49
2018-09-09T19:31:38.879Z,48.54
2018-09-09T19:34:06.592Z,49.42
2018-09-09T19:36:34.351Z,48.71
2018-09-09T19:39:02.008Z,48.52
2018-09-09T19:41:29.729Z,49.32
2018-09-09T19:43:57.471Z,51.41
2018-09-09T19:46:25.207Z,51.78
2018-09-09T19:48:52.979Z,52.25
2018-09-09T19:51:20.715Z,52.07
2018-09-09T19:53:48.451Z,52.97
2018-09-09T19:56:16.203Z,52.55
2018-09-09T19:58:43.917Z,52.16
2018-09-09T20:01:11.615Z,51.12
2018-09-09T20:03:39.335Z,53.11
2018-09-09T20:06:07.139Z,56.40
2018-09-09T20:08:34.814Z,55.85
2018-09-09T20:11:02.669Z,55.04
2018-09-09T20:13:30.351Z,53.75
2018-09-09T20:15:58.112Z,53.93
2018-09-09T20:18:25.811Z,54.73
2018-09-09T20:20:53.452Z,56.46
2018-09-09T20:23:21.186Z,55.67
2018-09-09T20:25:48.901Z,55.30
2018-09-09T20:28:16.647Z,54.28
2018-09-09T20:30:44.341Z,53.19
2018-09-09T20:33:12.031Z,54.51
2018-09-09T20:35:39.736Z,53.19
2018-09-09T20:38:07.429Z,56.27
2018-09-09T20:40:35.133Z,56.07
2018-09-09T20:43:02.798Z,55.17
2018-09-09T20:45:30.485Z,55.15
2018-09-09T20:47:58.194Z,54.10
2018-09-09T20:50:25.836Z,54.03
2018-09-09T20:52:53.519Z,53.45
2018-09-09T20:55:21.385Z,54.02
2018-09-09T20:57:49.082Z,54.43
2018-09-09T21:00:16.869Z,53.95
2018-09-09T21:02:44.601Z,53.61
2018-09-09T21:05:12.257Z,52.88
2018-09-09T21:07:40.058Z,52.48
2018-09-09T21:10:07.789Z,52.85
2018-09-09T21:12:35.508Z,51.61
2018-09-09T21:15:04.162Z,53.61
2018-09-09T21:17:32.304Z,53.97
2018-09-09T21:19:59.995Z,53.19
2018-09-09T21:22:27.713Z,53.31
2018-09-09T21:24:55.434Z,52.95
2018-09-09T21:27:23.129Z,54.03
2018-09-09T21:29:50.826Z,53.08
2018-09-09T21:32:18.638Z,53.71
2018-09-09T21:34:46.316Z,55.81
2018-09-09T21:37:14.010Z,55.55
2018-09-09T21:39:41.754Z,55.42
2018-09-09T21:42:09.501Z,56.10
2018-09-09T21:44:37.229Z,56.26
2018-09-09T21:47:05.357Z,57.02
2018-09-09T21:49:33.015Z,57.64
2018-09-09T21:52:00.859Z,56.35
2018-09-09T21:54:28.655Z,57.54
2018-09-09T21:56:56.354Z,56.68
2018-09-09T21:59:24.033Z,57.16
2018-09-09T22:01:57.402Z,57.94
2018-09-09T22:04:25.107Z,58.42
2018-09-09T22:06:52.813Z,59.33
2018-09-09T22:09:20.689Z,59.27
2018-09-09T22:11:48.408Z,59.64
2018-09-09T22:14:16.092Z,59.62
2018-09-09T22:16:43.883Z,58.59
2018-09-09T22:19:11.665Z,59.89
2018-09-09T22:21:39.401Z,60.58
2018-09-09T22:24:07.201Z,60.63
2018-09-09T22:26:34.886Z,62.17
2018-09-09T22:29:02.602Z,62.25
2018-09-09T22:31:30.307Z,60.64
2018-09-09T22:33:58.084Z,61.92
2018-09-09T22:36:25.835Z,62.80
2018-09-09T22:38:53.546Z,62.50
2018-09-09T22:41:21.239Z,62.67
2018-09-09T22:43:49.371Z,62.25
2018-09-09T22:46:17.082Z,62.89
2018-09-09T22:48:44.751Z,62.85
2018-09-09T22:51:12.430Z,63.56
2018-09-09T22:53:40.135Z,64.06
2018-09-09T22:56:07.816Z,63.52
2018-09-09T22:58:35.518Z,63.92
2018-09-09T23:01:03.222Z,63.40
2018-09-09T23:03:31.003Z,65.17
2018-09-09T23:05:58.674Z,64.59
2018-09-09T23:08:26.378Z,65.18
2018-09-09T23:10:54.186Z,63.43
2018-09-09T23:13:21.857Z,65.29
2018-09-09T23:15:49.539Z,65.74
2018-09-09T23:18:17.286Z,65.53
2018-09-09T23:20:44.955Z,65.05
2018-09-09T23:23:12.675Z,64.85
2018-09-09T23:25:40.430Z,64.27
2018-09-09T23:28:08.115Z,63.93
2018-09-09T23:30:35.874Z,63.55
2018-09-09T23:33:03.575Z,63.47
2018-09-09T23:35:31.270Z,63.63
2018-09-09T23:37:58.978Z,63.06
2018-09-09T23:40:26.710Z,60.74
2018-09-09T23:42:54.414Z,60.25
2018-09-09T23:45:22.227Z,60.30
2018-09-09T23:47:49.908Z,60.04
2018-09-09T23:50:17.594Z,60.39
2018-09-09T23:52:45.299Z,60.19
2018-09-09T23:55:12.982Z,59.00
2018-09-09T23:57:40.653Z,59.31
